sensor_id;sensor_type;location;lat;lon;timestamp;pressure;altitude;pressure_sealevel;temperature;humidity
13581;BME280;6861;46.170;7.222;2024-03-23T00:56:00;95839.53;;;11.89;45.37
13581;BME280;6861;46.170;7.222;2024-03-23T00:58:26;95845.38;;;11.75;45.39
13581;BME280;6861;46.170;7.222;2024-03-23T01:00:53;95851.75;;;11.64;46.05
13581;BME280;6861;46.170;7.222;2024-03-23T01:03:19;95841.41;;;11.44;46.63
13581;BME280;6861;46.170;7.222;2024-03-23T01:05:47;95837.28;;;11.33;46.65
13581;BME280;6861;46.170;7.222;2024-03-23T01:08:14;95831.63;;;11.21;47.25
13581;BME280;6861;46.170;7.222;2024-03-23T01:10:41;95832.47;;;11.11;47.59
13581;BME280;6861;46.170;7.222;2024-03-23T01:13:08;95832.22;;;11.07;47.37
13581;BME280;6861;46.170;7.222;2024-03-23T01:15:35;95829.34;;;11.09;47.51
13581;BME280;6861;46.170;7.222;2024-03-23T01:18:18;95821.72;;;11.12;47.44
13581;BME280;6861;46.170;7.222;2024-03-23T01:25:18;95805.44;;;11.21;47.29
13581;BME280;6861;46.170;7.222;2024-03-23T01:31:27;95810.94;;;11.19;46.95
13581;BME280;6861;46.170;7.222;2024-03-23T01:33:54;95798.16;;;11.12;46.76
13581;BME280;6861;46.170;7.222;2024-03-23T01:36:20;95806.28;;;11.11;46.71
13581;BME280;6861;46.170;7.222;2024-03-23T01:38:47;95808.63;;;11.12;47.05
13581;BME280;6861;46.170;7.222;2024-03-23T01:41:13;95802.88;;;11.10;46.69
13581;BME280;6861;46.170;7.222;2024-03-23T01:43:41;95818.06;;;11.08;47.47
13581;BME280;6861;46.170;7.222;2024-03-23T01:46:07;95812.31;;;11.06;47.38
13581;BME280;6861;46.170;7.222;2024-03-23T01:48:36;95798.19;;;11.07;47.25
13581;BME280;6861;46.170;7.222;2024-03-23T01:51:02;95796.09;;;11.04;47.39
13581;BME280;6861;46.170;7.222;2024-03-23T01:53:30;95803.44;;;11.02;47.47
13581;BME280;6861;46.170;7.222;2024-03-23T01:55:56;95793.50;;;10.99;47.47
13581;BME280;6861;46.170;7.222;2024-03-23T01:58:24;95795.88;;;11.01;47.45
13581;BME280;6861;46.170;7.222;2024-03-23T02:00:50;95792.69;;;11.09;47.63
13581;BME280;6861;46.170;7.222;2024-03-23T02:03:23;95789.78;;;11.10;47.35
13581;BME280;6861;46.170;7.222;2024-03-23T02:05:52;95791.09;;;11.08;47.47
13581;BME280;6861;46.170;7.222;2024-03-23T02:08:21;95781.69;;;11.07;47.85
13581;BME280;6861;46.170;7.222;2024-03-23T02:10:48;95778.34;;;10.96;47.68
13581;BME280;6861;46.170;7.222;2024-03-23T02:13:17;95776.84;;;10.85;48.07
13581;BME280;6861;46.170;7.222;2024-03-23T02:19:38;95776.44;;;10.63;48.16
13581;BME280;6861;46.170;7.222;2024-03-23T02:29:04;95768.66;;;10.42;48.83
13581;BME280;6861;46.170;7.222;2024-03-23T02:31:30;95771.31;;;10.37;48.94
13581;BME280;6861;46.170;7.222;2024-03-23T02:37:39;95772.31;;;10.41;48.40
13581;BME280;6861;46.170;7.222;2024-03-23T02:40:07;95773.09;;;10.47;48.72
13581;BME280;6861;46.170;7.222;2024-03-23T02:42:33;95775.72;;;10.47;48.59
13581;BME280;6861;46.170;7.222;2024-03-23T02:45:02;95770.47;;;10.47;48.89
13581;BME280;6861;46.170;7.222;2024-03-23T02:47:30;95778.06;;;10.48;48.87
13581;BME280;6861;46.170;7.222;2024-03-23T02:49:57;95769.97;;;10.45;49.03
13581;BME280;6861;46.170;7.222;2024-03-23T02:52:23;95767.41;;;10.35;49.38
13581;BME280;6861;46.170;7.222;2024-03-23T02:54:51;95778.16;;;10.28;49.80
13581;BME280;6861;46.170;7.222;2024-03-23T02:57:17;95777.13;;;10.24;49.69
13581;BME280;6861;46.170;7.222;2024-03-23T02:59:44;95766.41;;;10.26;49.58
13581;BME280;6861;46.170;7.222;2024-03-23T03:02:13;95748.88;;;10.26;49.81
13581;BME280;6861;46.170;7.222;2024-03-23T03:04:40;95741.03;;;10.26;49.58
13581;BME280;6861;46.170;7.222;2024-03-23T03:07:06;95730.28;;;10.33;49.32
13581;BME280;6861;46.170;7.222;2024-03-23T03:09:33;95735.75;;;10.36;49.32
13581;BME280;6861;46.170;7.222;2024-03-23T03:12:01;95741.47;;;10.43;48.86
13581;BME280;6861;46.170;7.222;2024-03-23T03:14:28;95735.66;;;10.51;49.05
13581;BME280;6861;46.170;7.222;2024-03-23T03:16:55;95729.34;;;10.58;48.99
13581;BME280;6861;46.170;7.222;2024-03-23T03:19:23;95720.97;;;10.61;49.18
13581;BME280;6861;46.170;7.222;2024-03-23T03:21:49;95725.16;;;10.62;48.71
13581;BME280;6861;46.170;7.222;2024-03-23T03:24:16;95725.91;;;10.67;49.04
13581;BME280;6861;46.170;7.222;2024-03-23T03:26:43;95727.44;;;10.73;48.35
13581;BME280;6861;46.170;7.222;2024-03-23T03:29:11;95717.50;;;10.75;49.00
13581;BME280;6861;46.170;7.222;2024-03-23T03:31:37;95713.56;;;10.73;49.00
13581;BME280;6861;46.170;7.222;2024-03-23T03:34:04;95707.84;;;10.66;48.99
13581;BME280;6861;46.170;7.222;2024-03-23T03:36:32;95710.22;;;10.62;49.16
13581;BME280;6861;46.170;7.222;2024-03-23T03:38:59;95696.13;;;10.58;49.86
13581;BME280;6861;46.170;7.222;2024-03-23T03:41:25;95704.00;;;10.53;49.56
13581;BME280;6861;46.170;7.222;2024-03-23T03:43:53;95711.31;;;10.56;49.71
13581;BME280;6861;46.170;7.222;2024-03-23T03:46:19;95706.63;;;10.53;49.69
13581;BME280;6861;46.170;7.222;2024-03-23T03:48:46;95703.72;;;10.55;49.65
13581;BME280;6861;46.170;7.222;2024-03-23T03:51:14;95704.25;;;10.57;49.30
13581;BME280;6861;46.170;7.222;2024-03-23T03:53:43;95692.19;;;10.61;49.11
13581;BME280;6861;46.170;7.222;2024-03-23T03:56:09;95695.31;;;10.63;49.49
13581;BME280;6861;46.170;7.222;2024-03-23T03:58:36;95706.28;;;10.65;49.27
13581;BME280;6861;46.170;7.222;2024-03-23T04:01:02;95698.97;;;10.62;48.99
13581;BME280;6861;46.170;7.222;2024-03-23T04:03:29;95692.19;;;10.61;49.32
13581;BME280;6861;46.170;7.222;2024-03-23T04:05:55;95689.06;;;10.59;49.21
13581;BME280;6861;46.170;7.222;2024-03-23T04:08:23;95670.00;;;10.53;49.20
13581;BME280;6861;46.170;7.222;2024-03-23T04:10:51;95668.97;;;10.49;49.34
13581;BME280;6861;46.170;7.222;2024-03-23T04:13:18;95666.34;;;10.49;49.51
13581;BME280;6861;46.170;7.222;2024-03-23T04:15:44;95663.19;;;10.52;49.33
13581;BME280;6861;46.170;7.222;2024-03-23T04:18:11;95666.56;;;10.58;49.46
13581;BME280;6861;46.170;7.222;2024-03-23T04:20:37;95668.63;;;10.66;49.57
13581;BME280;6861;46.170;7.222;2024-03-23T04:23:05;95662.28;;;10.72;49.01
13581;BME280;6861;46.170;7.222;2024-03-23T04:25:31;95663.59;;;10.74;49.18
13581;BME280;6861;46.170;7.222;2024-03-23T04:28:00;95662.75;;;10.79;49.16
13581;BME280;6861;46.170;7.222;2024-03-23T04:30:26;95661.13;;;10.88;49.02
13581;BME280;6861;46.170;7.222;2024-03-23T04:32:54;95652.16;;;10.99;49.13
13581;BME280;6861;46.170;7.222;2024-03-23T04:35:22;95630.09;;;11.05;49.00
13581;BME280;6861;46.170;7.222;2024-03-23T04:37:51;95634.25;;;11.11;48.80
13581;BME280;6861;46.170;7.222;2024-03-23T04:40:19;95638.94;;;11.14;49.28
13581;BME280;6861;46.170;7.222;2024-03-23T04:43:20;95629.31;;;11.05;49.42
13581;BME280;6861;46.170;7.222;2024-03-23T04:45:47;95604.06;;;10.90;49.65
13581;BME280;6861;46.170;7.222;2024-03-23T04:48:14;95583.50;;;10.73;50.04
13581;BME280;6861;46.170;7.222;2024-03-23T04:50:41;95583.88;;;10.62;50.35
13581;BME280;6861;46.170;7.222;2024-03-23T04:53:08;95566.91;;;10.54;50.27
13581;BME280;6861;46.170;7.222;2024-03-23T04:55:35;95567.47;;;10.51;50.19
13581;BME280;6861;46.170;7.222;2024-03-23T04:58:03;95565.91;;;10.50;50.20
13581;BME280;6861;46.170;7.222;2024-03-23T05:00:31;95569.31;;;10.50;50.29
13581;BME280;6861;46.170;7.222;2024-03-23T05:02:58;95586.53;;;10.57;49.63
13581;BME280;6861;46.170;7.222;2024-03-23T05:05:24;95592.19;;;10.69;49.27
13581;BME280;6861;46.170;7.222;2024-03-23T05:07:51;95587.88;;;10.83;49.40
13581;BME280;6861;46.170;7.222;2024-03-23T05:10:17;95601.91;;;10.97;49.41
13581;BME280;6861;46.170;7.222;2024-03-23T05:12:44;95607.81;;;11.08;49.49
13581;BME280;6861;46.170;7.222;2024-03-23T05:15:11;95592.34;;;11.11;49.97
13581;BME280;6861;46.170;7.222;2024-03-23T05:17:39;95557.81;;;11.09;49.75
13581;BME280;6861;46.170;7.222;2024-03-23T05:20:06;95536.97;;;10.99;50.63
13581;BME280;6861;46.170;7.222;2024-03-23T05:22:35;95529.25;;;10.84;50.81
13581;BME280;6861;46.170;7.222;2024-03-23T05:25:01;95515.75;;;10.72;51.03
13581;BME280;6861;46.170;7.222;2024-03-23T05:27:31;95521.59;;;10.64;51.38
13581;BME280;6861;46.170;7.222;2024-03-23T05:29:57;95530.53;;;10.58;51.67
13581;BME280;6861;46.170;7.222;2024-03-23T05:32:24;95536.94;;;10.41;52.06
13581;BME280;6861;46.170;7.222;2024-03-23T05:34:53;95533.94;;;10.24;52.67
13581;BME280;6861;46.170;7.222;2024-03-23T05:37:22;95541.81;;;10.19;52.81
13581;BME280;6861;46.170;7.222;2024-03-23T05:39:48;95548.09;;;10.18;52.82
13581;BME280;6861;46.170;7.222;2024-03-23T05:42:16;95573.16;;;10.24;52.92
13581;BME280;6861;46.170;7.222;2024-03-23T05:44:43;95595.59;;;10.35;53.10
13581;BME280;6861;46.170;7.222;2024-03-23T05:47:11;95610.41;;;10.45;53.04
13581;BME280;6861;46.170;7.222;2024-03-23T05:49:38;95623.75;;;10.43;54.63
13581;BME280;6861;46.170;7.222;2024-03-23T05:52:08;95642.97;;;10.29;55.29
13581;BME280;6861;46.170;7.222;2024-03-23T05:54:34;95640.13;;;10.20;55.64
13581;BME280;6861;46.170;7.222;2024-03-23T05:57:02;95658.97;;;10.12;56.12
13581;BME280;6861;46.170;7.222;2024-03-23T05:59:28;95655.06;;;10.09;56.09
13581;BME280;6861;46.170;7.222;2024-03-23T06:01:55;95658.44;;;10.15;56.22
13581;BME280;6861;46.170;7.222;2024-03-23T06:04:21;95660.50;;;10.23;56.02
13581;BME280;6861;46.170;7.222;2024-03-23T06:06:48;95669.34;;;10.32;56.00
13581;BME280;6861;46.170;7.222;2024-03-23T06:09:16;95672.47;;;10.34;56.66
13581;BME280;6861;46.170;7.222;2024-03-23T06:11:43;95679.31;;;10.25;57.16
13581;BME280;6861;46.170;7.222;2024-03-23T06:14:09;95669.13;;;10.18;57.20
13581;BME280;6861;46.170;7.222;2024-03-23T06:16:36;95649.53;;;10.21;57.31
13581;BME280;6861;46.170;7.222;2024-03-23T06:19:02;95659.16;;;10.31;56.94
13581;BME280;6861;46.170;7.222;2024-03-23T06:21:32;95662.72;;;10.45;56.73
13581;BME280;6861;46.170;7.222;2024-03-23T06:23:58;95656.41;;;10.51;56.96
13581;BME280;6861;46.170;7.222;2024-03-23T06:26:27;95645.69;;;10.47;56.99
13581;BME280;6861;46.170;7.222;2024-03-23T06:28:53;95638.91;;;10.46;57.10
13581;BME280;6861;46.170;7.222;2024-03-23T06:31:21;95643.06;;;10.52;57.12
13581;BME280;6861;46.170;7.222;2024-03-23T06:33:47;95640.91;;;10.60;57.13
13581;BME280;6861;46.170;7.222;2024-03-23T06:36:14;95646.34;;;10.68;57.29
13581;BME280;6861;46.170;7.222;2024-03-23T06:38:40;95660.66;;;10.81;57.51
13581;BME280;6861;46.170;7.222;2024-03-23T06:41:08;95676.28;;;10.91;57.65
13581;BME280;6861;46.170;7.222;2024-03-23T06:43:35;95677.81;;;10.97;57.70
13581;BME280;6861;46.170;7.222;2024-03-23T06:46:03;95673.59;;;11.01;57.16
13581;BME280;6861;46.170;7.222;2024-03-23T06:48:30;95674.66;;;11.00;57.91
13581;BME280;6861;46.170;7.222;2024-03-23T06:50:57;95672.06;;;10.95;58.04
13581;BME280;6861;46.170;7.222;2024-03-23T06:53:23;95666.38;;;10.88;58.60
13581;BME280;6861;46.170;7.222;2024-03-23T06:55:51;95651.22;;;10.85;59.08
13581;BME280;6861;46.170;7.222;2024-03-23T06:58:19;95667.94;;;10.89;59.11
13581;BME280;6861;46.170;7.222;2024-03-23T07:00:47;95673.63;;;10.96;58.96
13581;BME280;6861;46.170;7.222;2024-03-23T07:03:14;95668.88;;;11.03;58.85
13581;BME280;6861;46.170;7.222;2024-03-23T07:05:41;95666.25;;;11.03;59.27
13581;BME280;6861;46.170;7.222;2024-03-23T07:08:08;95655.28;;;11.01;59.92
13581;BME280;6861;46.170;7.222;2024-03-23T07:10:37;95649.47;;;11.04;59.88
13581;BME280;6861;46.170;7.222;2024-03-23T07:13:04;95666.16;;;11.13;59.31
13581;BME280;6861;46.170;7.222;2024-03-23T07:15:32;95679.09;;;11.29;59.73
13581;BME280;6861;46.170;7.222;2024-03-23T07:18:00;95660.91;;;11.42;59.03
13581;BME280;6861;46.170;7.222;2024-03-23T07:20:27;95662.16;;;11.50;59.38
13581;BME280;6861;46.170;7.222;2024-03-23T07:22:53;95648.75;;;11.52;60.44
13581;BME280;6861;46.170;7.222;2024-03-23T07:25:20;95645.31;;;11.56;59.99
13581;BME280;6861;46.170;7.222;2024-03-23T07:27:47;95631.03;;;11.67;60.21
13581;BME280;6861;46.170;7.222;2024-03-23T07:30:14;95650.81;;;11.84;59.72
13581;BME280;6861;46.170;7.222;2024-03-23T07:32:40;95674.03;;;12.14;59.12
13581;BME280;6861;46.170;7.222;2024-03-23T07:35:09;95689.72;;;12.19;59.08
13581;BME280;6861;46.170;7.222;2024-03-23T07:37:35;95674.03;;;11.95;59.72
13581;BME280;6861;46.170;7.222;2024-03-23T07:40:02;95672.66;;;11.74;60.17
13581;BME280;6861;46.170;7.222;2024-03-23T07:42:29;95673.53;;;11.64;59.77
13581;BME280;6861;46.170;7.222;2024-03-23T07:44:56;95666.06;;;11.76;59.37
13581;BME280;6861;46.170;7.222;2024-03-23T07:47:22;95662.19;;;11.98;60.02
13581;BME280;6861;46.170;7.222;2024-03-23T07:49:50;95671.22;;;12.29;59.52
13581;BME280;6861;46.170;7.222;2024-03-23T07:52:17;95670.59;;;12.37;58.58
13581;BME280;6861;46.170;7.222;2024-03-23T07:54:44;95691.78;;;12.22;59.10
13581;BME280;6861;46.170;7.222;2024-03-23T07:57:10;95695.78;;;12.14;58.58
13581;BME280;6861;46.170;7.222;2024-03-23T07:59:37;95695.72;;;12.01;58.69
13581;BME280;6861;46.170;7.222;2024-03-23T08:02:04;95690.41;;;11.82;60.06
13581;BME280;6861;46.170;7.222;2024-03-23T08:04:31;95692.84;;;11.73;59.44
13581;BME280;6861;46.170;7.222;2024-03-23T08:06:57;95685.03;;;11.68;60.17
13581;BME280;6861;46.170;7.222;2024-03-23T08:09:26;95679.72;;;11.73;59.85
13581;BME280;6861;46.170;7.222;2024-03-23T08:11:52;95679.47;;;11.99;60.01
13581;BME280;6861;46.170;7.222;2024-03-23T08:14:19;95685.34;;;12.33;59.68
13581;BME280;6861;46.170;7.222;2024-03-23T08:16:45;95684.78;;;12.74;59.53
13581;BME280;6861;46.170;7.222;2024-03-23T08:19:15;95681.19;;;13.02;58.88
13581;BME280;6861;46.170;7.222;2024-03-23T08:21:41;95684.44;;;13.13;59.08
13581;BME280;6861;46.170;7.222;2024-03-23T08:24:08;95682.59;;;13.13;58.69
13581;BME280;6861;46.170;7.222;2024-03-23T08:26:35;95678.41;;;13.12;59.77
13581;BME280;6861;46.170;7.222;2024-03-23T08:29:04;95686.66;;;13.06;59.74
13581;BME280;6861;46.170;7.222;2024-03-23T08:31:30;95688.00;;;13.03;59.27
13581;BME280;6861;46.170;7.222;2024-03-23T08:33:57;95685.72;;;13.16;59.31
13581;BME280;6861;46.170;7.222;2024-03-23T08:36:23;95674.03;;;13.40;59.70
13581;BME280;6861;46.170;7.222;2024-03-23T08:38:50;95684.69;;;13.63;58.54
13581;BME280;6861;46.170;7.222;2024-03-23T08:41:19;95686.84;;;13.74;58.46
13581;BME280;6861;46.170;7.222;2024-03-23T08:43:47;95692.09;;;13.74;57.95
13581;BME280;6861;46.170;7.222;2024-03-23T08:46:15;95694.63;;;13.66;58.79
13581;BME280;6861;46.170;7.222;2024-03-23T08:48:44;95684.88;;;13.66;58.76
13581;BME280;6861;46.170;7.222;2024-03-23T08:51:12;95682.75;;;13.68;58.93
13581;BME280;6861;46.170;7.222;2024-03-23T08:53:40;95677.16;;;14.38;57.47
13581;BME280;6861;46.170;7.222;2024-03-23T08:56:07;95673.38;;;15.03;56.23
13581;BME280;6861;46.170;7.222;2024-03-23T08:58:36;95673.28;;;15.39;55.72
13581;BME280;6861;46.170;7.222;2024-03-23T09:01:06;95667.38;;;15.64;55.28
13581;BME280;6861;46.170;7.222;2024-03-23T09:03:33;95672.47;;;15.92;54.59
13581;BME280;6861;46.170;7.222;2024-03-23T09:06:01;95678.00;;;16.47;53.18
13581;BME280;6861;46.170;7.222;2024-03-23T09:08:28;95680.50;;;16.52;52.51
13581;BME280;6861;46.170;7.222;2024-03-23T09:10:54;95675.63;;;16.11;52.61
13581;BME280;6861;46.170;7.222;2024-03-23T09:13:21;95670.84;;;15.73;52.69
13581;BME280;6861;46.170;7.222;2024-03-23T09:15:49;95667.53;;;15.37;53.29
13581;BME280;6861;46.170;7.222;2024-03-23T09:18:17;95673.06;;;15.27;53.64
13581;BME280;6861;46.170;7.222;2024-03-23T09:20:44;95670.47;;;15.35;53.68
13581;BME280;6861;46.170;7.222;2024-03-23T09:23:11;95665.75;;;15.24;53.40
13581;BME280;6861;46.170;7.222;2024-03-23T09:25:37;95674.50;;;15.11;53.65
13581;BME280;6861;46.170;7.222;2024-03-23T09:28:06;95676.53;;;14.91;53.92
13581;BME280;6861;46.170;7.222;2024-03-23T09:30:32;95686.81;;;14.79;54.24
13581;BME280;6861;46.170;7.222;2024-03-23T09:33:00;95683.19;;;14.66;54.83
13581;BME280;6861;46.170;7.222;2024-03-23T09:35:28;95687.88;;;14.56;55.06
13581;BME280;6861;46.170;7.222;2024-03-23T09:37:55;95691.81;;;14.45;54.99
13581;BME280;6861;46.170;7.222;2024-03-23T09:40:22;95701.53;;;14.30;54.92
13581;BME280;6861;46.170;7.222;2024-03-23T09:42:50;95708.06;;;14.19;54.94
13581;BME280;6861;46.170;7.222;2024-03-23T09:45:21;95708.06;;;14.19;55.42
13581;BME280;6861;46.170;7.222;2024-03-23T09:47:48;95690.72;;;16.19;52.32
13581;BME280;6861;46.170;7.222;2024-03-23T09:50:16;95707.53;;;17.61;49.28
13581;BME280;6861;46.170;7.222;2024-03-23T09:52:45;95695.56;;;17.47;49.34
13581;BME280;6861;46.170;7.222;2024-03-23T09:55:12;95708.72;;;16.91;50.11
13581;BME280;6861;46.170;7.222;2024-03-23T09:57:39;95718.66;;;16.20;50.57
13581;BME280;6861;46.170;7.222;2024-03-23T10:00:07;95717.66;;;15.59;51.51
13581;BME280;6861;46.170;7.222;2024-03-23T10:02:35;95732.06;;;15.17;52.29
13581;BME280;6861;46.170;7.222;2024-03-23T10:05:01;95726.47;;;14.96;52.88
13581;BME280;6861;46.170;7.222;2024-03-23T10:07:29;95734.78;;;15.26;52.48
13581;BME280;6861;46.170;7.222;2024-03-23T10:09:57;95749.94;;;15.43;51.78
13581;BME280;6861;46.170;7.222;2024-03-23T10:12:24;95749.16;;;15.42;51.76
13581;BME280;6861;46.170;7.222;2024-03-23T10:14:50;95758.38;;;15.53;51.80
13581;BME280;6861;46.170;7.222;2024-03-23T10:17:19;95754.66;;;15.54;51.54
13581;BME280;6861;46.170;7.222;2024-03-23T10:19:48;95764.72;;;15.52;51.64
13581;BME280;6861;46.170;7.222;2024-03-23T10:22:19;95764.56;;;15.49;51.52
13581;BME280;6861;46.170;7.222;2024-03-23T10:24:45;95759.81;;;15.37;51.22
13581;BME280;6861;46.170;7.222;2024-03-23T10:27:18;95778.72;;;15.17;51.33
13581;BME280;6861;46.170;7.222;2024-03-23T10:29:45;95768.03;;;14.99;51.71
13581;BME280;6861;46.170;7.222;2024-03-23T10:32:13;95782.91;;;14.82;51.78
13581;BME280;6861;46.170;7.222;2024-03-23T10:34:40;95783.53;;;14.65;51.69
13581;BME280;6861;46.170;7.222;2024-03-23T10:37:08;95780.63;;;14.53;51.42
13581;BME280;6861;46.170;7.222;2024-03-23T10:39:35;95760.31;;;14.39;52.06
13581;BME280;6861;46.170;7.222;2024-03-23T10:42:04;95778.06;;;14.34;52.18
13581;BME280;6861;46.170;7.222;2024-03-23T10:44:37;95787.63;;;14.30;51.88
13581;BME280;6861;46.170;7.222;2024-03-23T10:47:05;95775.72;;;14.32;51.90
13581;BME280;6861;46.170;7.222;2024-03-23T10:49:32;95754.28;;;14.39;51.31
13581;BME280;6861;46.170;7.222;2024-03-23T10:52:02;95769.41;;;14.97;50.34
13581;BME280;6861;46.170;7.222;2024-03-23T10:54:30;95767.16;;;17.42;45.80
13581;BME280;6861;46.170;7.222;2024-03-23T10:57:11;95773.34;;;20.14;41.26
13581;BME280;6861;46.170;7.222;2024-03-23T10:59:40;95767.91;;;22.36;37.77
13581;BME280;6861;46.170;7.222;2024-03-23T11:02:18;95772.09;;;22.37;37.24
13581;BME280;6861;46.170;7.222;2024-03-23T11:04:46;95776.41;;;23.08;35.56
13581;BME280;6861;46.170;7.222;2024-03-23T11:07:30;95779.59;;;24.86;33.48
13581;BME280;6861;46.170;7.222;2024-03-23T11:09:58;95773.22;;;29.61;27.90
13581;BME280;6861;46.170;7.222;2024-03-23T11:12:29;95766.03;;;33.18;23.81
13581;BME280;6861;46.170;7.222;2024-03-23T11:15:01;95759.81;;;35.53;21.71
13581;BME280;6861;46.170;7.222;2024-03-23T11:17:28;95759.06;;;34.78;22.02
13581;BME280;6861;46.170;7.222;2024-03-23T11:19:57;95763.13;;;33.69;18.00
13581;BME280;6861;46.170;7.222;2024-03-23T11:22:41;95765.84;;;32.12;18.19
13581;BME280;6861;46.170;7.222;2024-03-23T11:25:16;95781.91;;;28.96;20.85
13581;BME280;6861;46.170;7.222;2024-03-23T11:27:44;95772.03;;;25.81;23.10
13581;BME280;6861;46.170;7.222;2024-03-23T11:30:18;95778.97;;;23.59;24.95
13581;BME280;6861;46.170;7.222;2024-03-23T11:32:45;95765.56;;;22.18;27.34
13581;BME280;6861;46.170;7.222;2024-03-23T11:35:29;95761.78;;;21.32;27.79
13581;BME280;6861;46.170;7.222;2024-03-23T11:38:06;95763.44;;;20.72;28.35
13581;BME280;6861;46.170;7.222;2024-03-23T11:40:35;95770.72;;;20.26;29.04
13581;BME280;6861;46.170;7.222;2024-03-23T11:43:02;95767.47;;;20.09;29.84
13581;BME280;6861;46.170;7.222;2024-03-23T11:45:36;95765.81;;;19.92;30.38
13581;BME280;6861;46.170;7.222;2024-03-23T11:48:06;95767.63;;;19.67;30.57
13581;BME280;6861;46.170;7.222;2024-03-23T11:50:36;95770.09;;;19.30;30.59
13581;BME280;6861;46.170;7.222;2024-03-23T11:53:11;95760.84;;;19.16;31.20
13581;BME280;6861;46.170;7.222;2024-03-23T11:58:06;95758.25;;;19.28;30.12
13581;BME280;6861;46.170;7.222;2024-03-23T12:00:35;95758.53;;;18.93;28.52
13581;BME280;6861;46.170;7.222;2024-03-23T12:03:01;95759.38;;;18.85;29.57
13581;BME280;6861;46.170;7.222;2024-03-23T12:05:29;95750.13;;;18.91;30.57
13581;BME280;6861;46.170;7.222;2024-03-23T12:07:55;95745.34;;;18.85;30.85
13581;BME280;6861;46.170;7.222;2024-03-23T12:10:23;95733.69;;;18.77;31.53
13581;BME280;6861;46.170;7.222;2024-03-23T12:13:00;95722.94;;;18.74;31.85
13581;BME280;6861;46.170;7.222;2024-03-23T12:15:27;95711.75;;;18.68;31.54
13581;BME280;6861;46.170;7.222;2024-03-23T12:18:07;95717.88;;;18.60;31.27
13581;BME280;6861;46.170;7.222;2024-03-23T12:20:35;95709.19;;;18.51;31.47
13581;BME280;6861;46.170;7.222;2024-03-23T12:23:08;95703.84;;;18.30;32.33
13581;BME280;6861;46.170;7.222;2024-03-23T12:25:36;95703.00;;;18.17;33.01
13581;BME280;6861;46.170;7.222;2024-03-23T12:28:02;95690.91;;;18.08;33.25
13581;BME280;6861;46.170;7.222;2024-03-23T12:30:32;95691.09;;;17.94;33.11
13581;BME280;6861;46.170;7.222;2024-03-23T12:32:59;95685.09;;;17.76;33.47
13581;BME280;6861;46.170;7.222;2024-03-23T12:35:28;95682.47;;;17.59;33.44
13581;BME280;6861;46.170;7.222;2024-03-23T12:37:56;95680.94;;;17.49;33.24
13581;BME280;6861;46.170;7.222;2024-03-23T12:40:25;95676.91;;;17.43;32.56
13581;BME280;6861;46.170;7.222;2024-03-23T12:42:54;95670.69;;;17.39;33.02
13581;BME280;6861;46.170;7.222;2024-03-23T12:45:23;95678.69;;;17.30;32.58
13581;BME280;6861;46.170;7.222;2024-03-23T12:47:50;95678.06;;;17.25;33.15
13581;BME280;6861;46.170;7.222;2024-03-23T12:50:18;95679.78;;;17.21;33.02
13581;BME280;6861;46.170;7.222;2024-03-23T12:52:45;95680.09;;;17.19;32.69
13581;BME280;6861;46.170;7.222;2024-03-23T12:55:13;95676.81;;;17.22;32.39
13581;BME280;6861;46.170;7.222;2024-03-23T12:57:39;95685.38;;;17.19;31.94
13581;BME280;6861;46.170;7.222;2024-03-23T13:00:08;95693.31;;;17.19;31.82
13581;BME280;6861;46.170;7.222;2024-03-23T13:02:37;95694.09;;;17.20;31.92
13581;BME280;6861;46.170;7.222;2024-03-23T13:05:05;95693.28;;;17.28;31.92
13581;BME280;6861;46.170;7.222;2024-03-23T13:07:31;95698.38;;;17.42;31.95
13581;BME280;6861;46.170;7.222;2024-03-23T13:10:00;95710.50;;;17.51;32.21
13581;BME280;6861;46.170;7.222;2024-03-23T13:12:27;95699.28;;;17.54;31.51
13581;BME280;6861;46.170;7.222;2024-03-23T13:14:54;95707.69;;;17.56;31.96
13581;BME280;6861;46.170;7.222;2024-03-23T13:17:21;95693.19;;;17.62;31.39
13581;BME280;6861;46.170;7.222;2024-03-23T13:19:48;95685.44;;;17.66;31.06
13581;BME280;6861;46.170;7.222;2024-03-23T13:22:14;95671.56;;;17.69;30.27
13581;BME280;6861;46.170;7.222;2024-03-23T13:24:41;95674.53;;;17.59;29.24
13581;BME280;6861;46.170;7.222;2024-03-23T13:27:09;95668.63;;;17.53;29.42
13581;BME280;6861;46.170;7.222;2024-03-23T13:29:37;95663.03;;;17.55;29.22
13581;BME280;6861;46.170;7.222;2024-03-23T13:32:04;95650.25;;;17.57;29.20
13581;BME280;6861;46.170;7.222;2024-03-23T13:34:31;95653.69;;;17.57;29.30
13581;BME280;6861;46.170;7.222;2024-03-23T13:36:59;95642.00;;;17.58;28.54
13581;BME280;6861;46.170;7.222;2024-03-23T13:39:26;95643.56;;;17.59;28.12
13581;BME280;6861;46.170;7.222;2024-03-23T13:41:53;95632.06;;;17.55;27.54
13581;BME280;6861;46.170;7.222;2024-03-23T13:44:23;95629.59;;;17.50;28.04
13581;BME280;6861;46.170;7.222;2024-03-23T13:46:49;95642.53;;;17.43;27.04
13581;BME280;6861;46.170;7.222;2024-03-23T13:49:27;95633.50;;;17.35;27.18
13581;BME280;6861;46.170;7.222;2024-03-23T13:51:53;95639.31;;;17.29;27.50
13581;BME280;6861;46.170;7.222;2024-03-23T13:54:21;95633.09;;;17.25;27.10
13581;BME280;6861;46.170;7.222;2024-03-23T13:56:48;95630.16;;;17.26;27.17
13581;BME280;6861;46.170;7.222;2024-03-23T13:59:16;95655.50;;;17.27;27.82
13581;BME280;6861;46.170;7.222;2024-03-23T14:01:44;95647.41;;;17.24;27.62
13581;BME280;6861;46.170;7.222;2024-03-23T14:04:12;95644.31;;;17.22;27.64
13581;BME280;6861;46.170;7.222;2024-03-23T14:06:38;95649.31;;;17.15;26.57
13581;BME280;6861;46.170;7.222;2024-03-23T14:09:05;95646.81;;;17.10;27.06
13581;BME280;6861;46.170;7.222;2024-03-23T14:11:34;95631.09;;;17.13;27.08
13581;BME280;6861;46.170;7.222;2024-03-23T14:14:02;95625.50;;;17.15;27.24
13581;BME280;6861;46.170;7.222;2024-03-23T14:16:29;95632.97;;;17.21;27.78
13581;BME280;6861;46.170;7.222;2024-03-23T14:18:58;95627.81;;;17.25;26.52
13581;BME280;6861;46.170;7.222;2024-03-23T14:21:24;95630.00;;;17.23;27.46
13581;BME280;6861;46.170;7.222;2024-03-23T14:23:51;95627.81;;;17.25;27.46
13581;BME280;6861;46.170;7.222;2024-03-23T14:26:17;95630.00;;;17.23;27.45
13581;BME280;6861;46.170;7.222;2024-03-23T14:28:45;95620.69;;;17.17;26.82
13581;BME280;6861;46.170;7.222;2024-03-23T14:31:12;95613.69;;;17.12;26.93
13581;BME280;6861;46.170;7.222;2024-03-23T14:33:39;95608.25;;;17.09;26.89